createdAt,value
2018-08-20T00:00:20.985Z,5.40
2018-08-20T00:02:49.206Z,5.70
2018-08-20T00:05:17.431Z,5.80
2018-08-20T00:07:45.875Z,5.60
2018-08-20T00:10:15.174Z,5.70
2018-08-20T00:12:44.138Z,6.30
2018-08-20T00:15:13.126Z,6.20
2018-08-20T00:17:42.531Z,6.03
2018-08-20T00:20:11.414Z,6.37
2018-08-20T00:22:41.939Z,5.83
2018-08-20T00:25:14.276Z,6.50
2018-08-20T00:27:43.075Z,6.07
2018-08-20T00:30:14.078Z,6.03
2018-08-20T00:32:45.063Z,6.20
2018-08-20T00:35:16.234Z,6.47
2018-08-20T00:37:46.493Z,6.20
2018-08-20T00:40:15.148Z,5.83
2018-08-20T00:42:43.835Z,6.43
2018-08-20T00:45:12.618Z,6.73
2018-08-20T00:47:41.749Z,6.40
2018-08-20T00:50:11.620Z,5.53
2018-08-20T00:52:40.965Z,6.80
2018-08-20T00:55:11.911Z,6.17
2018-08-20T00:57:41.412Z,5.97
2018-08-20T01:00:11.371Z,6.53
2018-08-20T01:02:40.626Z,5.70
2018-08-20T01:05:09.794Z,6.33
2018-08-20T01:07:38.686Z,6.27
2018-08-20T01:10:08.726Z,6.23
2018-08-20T01:12:37.548Z,6.50
2018-08-20T01:15:05.926Z,6.27
2018-08-20T01:17:34.163Z,7.13
2018-08-20T01:20:02.430Z,7.37
2018-08-20T01:22:30.763Z,7.13
2018-08-20T01:24:59.204Z,6.67
2018-08-20T01:27:29.114Z,6.83
2018-08-20T01:29:57.702Z,6.67
2018-08-20T01:32:26.026Z,7.27
2018-08-20T01:34:54.247Z,7.13
2018-08-20T01:37:22.647Z,6.77
2018-08-20T01:39:51.059Z,6.93
2018-08-20T01:42:19.559Z,6.53
2018-08-20T01:44:48.275Z,7.53
2018-08-20T01:47:16.480Z,7.00
2018-08-20T01:49:44.827Z,7.00
2018-08-20T01:52:13.355Z,7.27
2018-08-20T01:54:42.036Z,7.90
2018-08-20T01:57:10.895Z,7.87
2018-08-20T01:59:39.630Z,7.70
2018-08-20T02:02:08.672Z,6.83
2018-08-20T02:04:37.679Z,7.37
2018-08-20T02:07:06.235Z,7.77
2018-08-20T02:09:34.536Z,7.33
2018-08-20T02:12:02.754Z,7.57
2018-08-20T02:14:31.236Z,7.33
2018-08-20T02:16:59.683Z,7.83
2018-08-20T02:19:28.033Z,7.67
2018-08-20T02:21:56.316Z,8.43
2018-08-20T02:24:24.619Z,8.33
2018-08-20T02:26:52.823Z,8.00
2018-08-20T02:29:21.028Z,7.73
2018-08-20T02:31:49.222Z,7.60
2018-08-20T02:34:17.460Z,8.27
2018-08-20T02:36:45.890Z,7.40
2018-08-20T02:39:14.869Z,8.43
2018-08-20T02:41:43.850Z,8.30
2018-08-20T02:44:13.244Z,8.40
2018-08-20T02:46:53.093Z,8.43
2018-08-20T02:49:21.645Z,8.47
2018-08-20T02:51:50.759Z,8.07
2018-08-20T02:54:19.259Z,8.07
2018-08-20T02:56:47.724Z,8.30
2018-08-20T02:59:16.316Z,8.03
2018-08-20T03:01:45.031Z,8.10
2018-08-20T03:04:13.626Z,8.03
2018-08-20T03:06:42.318Z,8.73
2018-08-20T03:09:15.587Z,8.40
2018-08-20T03:11:44.308Z,8.23
2018-08-20T03:14:13.735Z,8.67
2018-08-20T03:16:42.468Z,8.10
2018-08-20T03:19:11.401Z,8.63
2018-08-20T03:21:40.547Z,8.30
2018-08-20T03:24:09.358Z,8.70
2018-08-20T03:26:38.872Z,7.87
2018-08-20T03:29:08.370Z,7.97
2018-08-20T03:31:36.816Z,8.83
2018-08-20T03:34:05.466Z,9.03
2018-08-20T03:36:33.940Z,9.07
2018-08-20T03:39:02.423Z,8.83
2018-08-20T03:41:31.142Z,9.10
2018-08-20T03:43:59.698Z,9.07
2018-08-20T03:46:28.624Z,8.93
2018-08-20T03:48:57.299Z,8.13
2018-08-20T03:51:25.935Z,9.20
2018-08-20T03:53:54.387Z,8.30
2018-08-20T03:56:22.736Z,8.33
2018-08-20T03:58:51.092Z,8.17
2018-08-20T04:01:19.556Z,8.73
2018-08-20T04:03:47.991Z,8.57
2018-08-20T04:06:16.466Z,9.10
2018-08-20T04:08:45.184Z,9.27
2018-08-20T04:11:13.916Z,8.70
2018-08-20T04:13:42.628Z,8.40
2018-08-20T04:16:11.467Z,8.93
2018-08-20T04:18:40.740Z,8.53
2018-08-20T04:21:09.632Z,8.50
2018-08-20T04:23:39.026Z,8.43
2018-08-20T04:26:07.983Z,9.10
2018-08-20T04:28:36.697Z,8.20
2018-08-20T04:31:05.181Z,9.30
2018-08-20T04:33:33.595Z,8.33
2018-08-20T04:36:02.062Z,10.07
2018-08-20T04:38:30.527Z,8.13
2018-08-20T04:40:59.124Z,8.10
2018-08-20T04:43:27.699Z,8.20
2018-08-20T04:45:56.238Z,9.00
2018-08-20T04:48:24.638Z,8.67
2018-08-20T04:50:53.218Z,7.93
2018-08-20T04:53:21.599Z,8.57
2018-08-20T04:55:50.012Z,8.30
2018-08-20T04:58:18.409Z,7.97
2018-08-20T05:00:46.828Z,7.63
2018-08-20T05:03:16.252Z,8.07
2018-08-20T05:05:45.277Z,8.13
2018-08-20T05:08:14.088Z,8.33
2018-08-20T05:10:42.749Z,8.33
2018-08-20T05:13:11.516Z,8.67
2018-08-20T05:15:40.299Z,8.30
2018-08-20T05:18:09.373Z,7.63
2018-08-20T05:20:38.469Z,7.97
2018-08-20T05:23:07.049Z,8.17
2018-08-20T05:25:35.443Z,7.87
2018-08-20T05:28:03.942Z,8.00
2018-08-20T05:30:32.411Z,8.23
2018-08-20T05:33:00.809Z,8.20
2018-08-20T05:35:29.479Z,7.77
2018-08-20T05:37:58.155Z,8.10
2018-08-20T05:40:26.588Z,8.17
2018-08-20T05:42:55.099Z,8.23
2018-08-20T05:45:23.530Z,8.03
2018-08-20T05:47:52.060Z,7.77
2018-08-20T05:50:20.545Z,7.40
2018-08-20T05:52:48.973Z,8.00
2018-08-20T05:55:17.459Z,7.03
2018-08-20T05:57:46.077Z,7.40
2018-08-20T06:00:16.651Z,8.30
2018-08-20T06:02:45.826Z,8.07
2018-08-20T06:05:14.472Z,8.07
2018-08-20T06:07:43.581Z,8.10
2018-08-20T06:10:12.174Z,8.67
2018-08-20T06:12:40.912Z,7.20
2018-08-20T06:15:12.485Z,6.80
2018-08-20T06:17:41.501Z,7.00
2018-08-20T06:20:16.491Z,7.20
2018-08-20T06:22:45.311Z,7.47
2018-08-20T06:25:14.522Z,7.93
2018-08-20T06:27:43.561Z,7.60
2018-08-20T06:30:15.454Z,7.70
2018-08-20T06:32:44.189Z,6.63
2018-08-20T06:35:13.129Z,6.87
2018-08-20T06:37:42.453Z,7.27
2018-08-20T06:40:12.977Z,6.83
2018-08-20T06:42:41.685Z,6.30
2018-08-20T06:45:15.005Z,6.70
2018-08-20T06:47:44.544Z,6.13
2018-08-20T06:50:13.583Z,5.20
2018-08-20T06:52:43.219Z,5.60
2018-08-20T06:55:12.900Z,4.90
2018-08-20T06:57:42.448Z,4.97
2018-08-20T07:00:12.718Z,4.93
2018-08-20T07:02:42.012Z,4.70
2018-08-20T07:05:10.924Z,4.93
2018-08-20T07:07:40.796Z,5.33
2018-08-20T07:10:12.383Z,5.40
2018-08-20T07:12:41.432Z,4.77
2018-08-20T07:15:12.350Z,4.73
2018-08-20T07:17:41.093Z,4.63
2018-08-20T07:20:12.211Z,4.83
2018-08-20T07:22:41.185Z,5.13
2018-08-20T07:25:10.312Z,4.57
2018-08-20T07:27:39.229Z,4.33
2018-08-20T07:30:10.142Z,4.60
2018-08-20T07:32:39.405Z,4.50
2018-08-20T07:35:10.036Z,4.40
2018-08-20T07:37:38.808Z,4.30
2018-08-20T07:40:08.554Z,5.07
2018-08-20T07:42:37.320Z,4.60
2018-08-20T07:45:06.677Z,4.10
2018-08-20T07:47:35.096Z,4.30
2018-08-20T07:50:03.785Z,4.63
2018-08-20T07:52:32.465Z,4.37
2018-08-20T07:55:01.109Z,3.87
2018-08-20T07:57:29.585Z,4.67
2018-08-20T07:59:58.201Z,3.90
2018-08-20T08:02:26.443Z,4.00
2018-08-20T08:04:54.646Z,3.77
2018-08-20T08:07:23.095Z,3.90
2018-08-20T08:09:51.327Z,3.50
2018-08-20T08:12:19.557Z,3.40
2018-08-20T08:14:47.776Z,3.40
2018-08-20T08:17:16.064Z,3.50
2018-08-20T08:19:44.546Z,3.50
2018-08-20T08:22:12.901Z,3.53
2018-08-20T08:24:41.523Z,3.50
2018-08-20T08:27:10.145Z,3.33
2018-08-20T08:29:38.719Z,4.60
2018-08-20T08:32:07.216Z,3.07
2018-08-20T08:34:35.949Z,2.87
2018-08-20T08:37:04.319Z,2.67
2018-08-20T08:39:32.632Z,2.60
2018-08-20T08:42:01.284Z,2.50
2018-08-20T08:44:29.717Z,2.73
2018-08-20T08:46:58.024Z,2.73
2018-08-20T08:49:26.250Z,2.57
2018-08-20T08:51:54.595Z,2.50
2018-08-20T08:54:22.820Z,2.83
2018-08-20T08:56:51.036Z,2.40
2018-08-20T08:59:19.296Z,2.87
2018-08-20T09:01:47.525Z,2.23
2018-08-20T09:04:15.951Z,2.50
2018-08-20T09:06:44.683Z,2.67
2018-08-20T09:09:13.813Z,2.60
2018-08-20T09:11:42.339Z,2.77
2018-08-20T09:14:11.015Z,2.40
2018-08-20T09:16:40.028Z,2.27
2018-08-20T09:19:09.691Z,2.67
2018-08-20T09:21:38.763Z,2.60
2018-08-20T09:24:07.704Z,2.60
2018-08-20T09:26:36.251Z,2.77
2018-08-20T09:29:04.583Z,2.30
2018-08-20T09:31:32.884Z,2.40
2018-08-20T09:34:01.255Z,2.73
2018-08-20T09:36:29.615Z,2.57
2018-08-20T09:38:58.204Z,2.63
2018-08-20T09:41:26.494Z,2.50
2018-08-20T09:43:54.801Z,2.40
2018-08-20T09:46:23.174Z,2.60
2018-08-20T09:48:54.977Z,2.33
2018-08-20T09:51:23.187Z,2.40
2018-08-20T09:53:51.527Z,2.10
2018-08-20T09:56:19.979Z,2.47
2018-08-20T09:58:48.196Z,2.20
2018-08-20T10:01:16.510Z,2.30
2018-08-20T10:03:45.467Z,2.40
2018-08-20T10:06:14.827Z,2.60
2018-08-20T10:08:43.263Z,2.57
2018-08-20T10:11:12.787Z,2.50
2018-08-20T10:13:41.608Z,2.80
2018-08-20T10:16:10.454Z,2.30
2018-08-20T10:18:39.919Z,2.30
2018-08-20T10:21:10.821Z,2.70
2018-08-20T10:23:39.932Z,2.70
2018-08-20T10:26:09.197Z,2.40
2018-08-20T10:28:38.027Z,2.53
2018-08-20T10:31:06.718Z,2.37
2018-08-20T10:33:35.056Z,2.50
2018-08-20T10:36:03.644Z,2.80
2018-08-20T10:38:31.960Z,2.97
2018-08-20T10:41:00.460Z,2.50
2018-08-20T10:43:29.119Z,2.90
2018-08-20T10:46:03.336Z,2.67
2018-08-20T10:48:31.837Z,2.80
2018-08-20T10:51:00.634Z,2.90
2018-08-20T10:53:29.182Z,2.40
2018-08-20T10:55:57.536Z,2.83
2018-08-20T10:58:25.803Z,2.80
2018-08-20T11:00:54.024Z,2.80
2018-08-20T11:03:22.236Z,3.13
2018-08-20T11:05:50.455Z,2.83
2018-08-20T11:08:18.859Z,2.50
2018-08-20T11:10:47.532Z,2.80
2018-08-20T11:13:16.375Z,2.80
2018-08-20T11:15:45.119Z,2.70
2018-08-20T11:18:13.724Z,2.17
2018-08-20T11:20:43.573Z,2.57
2018-08-20T11:23:12.557Z,2.30
2018-08-20T11:25:41.222Z,2.50
2018-08-20T11:28:10.095Z,3.00
2018-08-20T11:30:39.767Z,2.30
2018-08-20T11:33:09.271Z,2.53
2018-08-20T11:35:38.290Z,2.57
2018-08-20T11:38:07.147Z,2.43
2018-08-20T11:40:35.653Z,2.50
2018-08-20T11:43:03.999Z,2.60
2018-08-20T11:45:32.431Z,2.87
2018-08-20T11:48:01.440Z,2.83
2018-08-20T11:50:30.260Z,2.90
2018-08-20T11:52:58.594Z,3.10
2018-08-20T11:55:27.102Z,2.77
2018-08-20T11:57:58.514Z,2.57
2018-08-20T12:00:26.947Z,2.70
2018-08-20T12:02:55.164Z,3.23
2018-08-20T12:05:23.389Z,2.53
2018-08-20T12:07:51.676Z,2.47
2018-08-20T12:10:19.900Z,2.57
2018-08-20T12:12:48.363Z,2.93
2018-08-20T12:15:16.907Z,3.07
2018-08-20T12:17:45.475Z,2.87
2018-08-20T12:20:13.915Z,3.03
2018-08-20T12:22:42.715Z,2.40
2018-08-20T12:25:13.792Z,3.60
2018-08-20T12:27:43.415Z,2.90
2018-08-20T12:30:13.291Z,2.83
2018-08-20T12:32:42.584Z,2.80
2018-08-20T12:35:11.986Z,2.60
2018-08-20T12:37:42.196Z,2.77
2018-08-20T12:40:12.036Z,2.90
2018-08-20T12:42:49.051Z,2.53
2018-08-20T12:45:17.330Z,2.67
2018-08-20T12:47:45.827Z,2.60
2018-08-20T12:50:14.163Z,3.23
2018-08-20T12:52:42.935Z,2.73
2018-08-20T12:55:13.166Z,3.07
2018-08-20T12:57:43.454Z,2.90
2018-08-20T13:00:13.090Z,2.27
2018-08-20T13:02:42.310Z,2.80
2018-08-20T13:05:11.566Z,2.97
2018-08-20T13:07:41.496Z,2.70
2018-08-20T13:10:12.359Z,2.70
2018-08-20T13:12:42.114Z,2.87
2018-08-20T13:15:12.907Z,2.83
2018-08-20T13:17:42.120Z,3.20
2018-08-20T13:20:11.783Z,3.00
2018-08-20T13:22:42.053Z,2.90
2018-08-20T13:25:12.059Z,2.80
2018-08-20T13:27:43.753Z,3.00
2018-08-20T13:30:13.289Z,3.07
2018-08-20T13:32:42.929Z,2.93
2018-08-20T13:35:13.907Z,2.77
2018-08-20T13:37:43.843Z,2.70
2018-08-20T13:40:12.966Z,3.00
2018-08-20T13:42:43.072Z,2.63
2018-08-20T13:45:13.924Z,3.00
2018-08-20T13:47:43.423Z,2.63
2018-08-20T13:50:14.911Z,2.60
2018-08-20T13:52:46.750Z,2.83
2018-08-20T13:55:15.689Z,2.53
2018-08-20T13:57:47.564Z,3.00
2018-08-20T14:00:17.691Z,3.00
2018-08-20T14:02:46.155Z,2.87
2018-08-20T14:05:16.267Z,2.70
2018-08-20T14:07:45.765Z,2.77
2018-08-20T14:10:14.523Z,3.07
2018-08-20T14:12:43.916Z,2.90
2018-08-20T14:15:14.229Z,3.00
2018-08-20T14:17:44.093Z,2.77
2018-08-20T14:20:14.623Z,2.70
2018-08-20T14:22:44.887Z,2.90
2018-08-20T14:25:13.836Z,2.67
2018-08-20T14:27:43.147Z,2.90
2018-08-20T14:30:14.182Z,3.00
2018-08-20T14:32:43.692Z,2.50
2018-08-20T14:35:12.650Z,2.63
2018-08-20T14:37:42.608Z,2.80
2018-08-20T14:40:16.088Z,2.80
2018-08-20T14:42:45.123Z,2.90
2018-08-20T14:45:14.966Z,3.10
2018-08-20T14:47:44.402Z,3.00
2018-08-20T14:50:15.244Z,3.40
2018-08-20T14:52:45.244Z,2.73
2018-08-20T14:55:14.051Z,3.17
2018-08-20T14:57:44.079Z,2.90
2018-08-20T15:00:14.721Z,2.73
2018-08-20T15:02:44.302Z,3.27
2018-08-20T15:05:13.999Z,3.20
2018-08-20T15:07:43.168Z,2.87
2018-08-20T15:10:13.220Z,3.03
2018-08-20T15:12:43.773Z,3.10
2018-08-20T15:15:12.953Z,2.80
2018-08-20T15:17:43.285Z,2.87
2018-08-20T15:20:12.986Z,2.70
2018-08-20T15:22:43.681Z,3.27
2018-08-20T15:25:13.246Z,2.87
2018-08-20T15:27:43.472Z,3.07
2018-08-20T15:30:12.895Z,2.90
2018-08-20T15:32:43.379Z,2.80
2018-08-20T15:35:13.299Z,3.00
2018-08-20T15:37:43.442Z,2.57
2018-08-20T15:40:12.887Z,3.03
2018-08-20T15:42:42.381Z,3.37
2018-08-20T15:45:12.568Z,3.33
2018-08-20T15:47:42.831Z,2.63
2018-08-20T15:50:13.194Z,3.47
2018-08-20T15:52:42.710Z,4.03
2018-08-20T15:55:13.282Z,2.90
2018-08-20T15:57:43.372Z,3.00
2018-08-20T16:00:14.010Z,2.90
2018-08-20T16:02:43.195Z,3.07
2018-08-20T16:05:12.185Z,2.90
2018-08-20T16:07:41.327Z,3.13
2018-08-20T16:10:11.478Z,2.90
2018-08-20T16:12:40.958Z,2.90
2018-08-20T16:15:10.396Z,3.17
2018-08-20T16:17:39.332Z,2.67
2018-08-20T16:20:08.608Z,2.80
2018-08-20T16:22:37.856Z,3.00
2018-08-20T16:25:07.581Z,2.87
2018-08-20T16:27:36.532Z,3.13
2018-08-20T16:30:08.118Z,2.90
2018-08-20T16:32:37.579Z,3.13
2018-08-20T16:35:07.876Z,2.73
2018-08-20T16:37:36.251Z,2.77
2018-08-20T16:40:04.816Z,3.03
2018-08-20T16:42:33.010Z,2.80
2018-08-20T16:45:01.248Z,3.20
2018-08-20T16:47:29.462Z,3.07
2018-08-20T16:49:57.727Z,2.67
2018-08-20T16:52:25.998Z,2.47
2018-08-20T16:54:54.300Z,2.57
2018-08-20T16:57:26.308Z,2.63
2018-08-20T16:59:54.580Z,2.97
2018-08-20T17:02:28.082Z,3.10
2018-08-20T17:04:56.358Z,2.90
2018-08-20T17:07:24.592Z,2.97
2018-08-20T17:09:52.848Z,3.03
2018-08-20T17:12:21.071Z,3.40
2018-08-20T17:14:49.482Z,3.50
2018-08-20T17:17:17.746Z,3.00
2018-08-20T17:19:46.965Z,2.70
2018-08-20T17:22:15.806Z,3.00
2018-08-20T17:24:44.540Z,2.70
2018-08-20T17:27:13.128Z,2.47
2018-08-20T17:29:41.911Z,2.60
2018-08-20T17:32:10.817Z,2.70
2018-08-20T17:34:41.243Z,2.50
2018-08-20T17:37:10.852Z,2.50
2018-08-20T17:40:02.467Z,3.03
2018-08-20T17:42:32.013Z,2.73
2018-08-20T17:45:00.777Z,2.40
2018-08-20T17:47:29.678Z,2.53
2018-08-20T17:49:58.816Z,2.70
2018-08-20T17:52:30.798Z,2.43
2018-08-20T17:55:00.702Z,2.50
2018-08-20T17:57:28.866Z,2.47
2018-08-20T18:01:07.158Z,3.03
2018-08-20T18:03:37.064Z,2.63
2018-08-20T18:06:09.670Z,2.90
2018-08-20T18:08:38.955Z,2.60
2018-08-20T18:11:08.212Z,2.40
2018-08-20T18:13:46.148Z,2.93
2018-08-20T18:16:17.635Z,2.73
2018-08-20T18:18:47.468Z,2.67
2018-08-20T18:21:16.136Z,2.43
2018-08-20T18:23:45.211Z,3.00
2018-08-20T18:26:13.692Z,2.70
2018-08-20T18:28:48.023Z,3.63
2018-08-20T18:31:28.063Z,2.90
2018-08-20T18:33:56.321Z,3.20
2018-08-20T18:36:25.774Z,3.33
2018-08-20T18:38:56.531Z,2.80
2018-08-20T18:42:08.154Z,3.03
2018-08-20T18:44:37.267Z,2.97
2018-08-20T18:47:07.792Z,3.10
2018-08-20T18:49:48.518Z,3.17
2018-08-20T18:52:17.351Z,2.53
2018-08-20T18:54:46.919Z,2.90
2018-08-20T18:57:17.329Z,3.00
2018-08-20T18:59:45.854Z,3.20
2018-08-20T19:02:26.147Z,2.90
2018-08-20T19:04:54.400Z,3.13
2018-08-20T19:07:22.651Z,2.93
2018-08-20T19:09:50.867Z,2.63
2018-08-20T19:12:19.083Z,2.90
2018-08-20T19:14:47.305Z,3.23
2018-08-20T19:17:34.278Z,2.70
2018-08-20T19:20:02.575Z,3.83
2018-08-20T19:22:31.099Z,2.93
2018-08-20T19:24:59.343Z,3.17
2018-08-20T19:27:29.778Z,2.90
2018-08-20T19:30:00.708Z,2.97
2018-08-20T19:32:39.060Z,3.20
2018-08-20T19:35:08.209Z,3.07
2018-08-20T19:37:37.229Z,2.87
2018-08-20T19:40:10.556Z,2.73
2018-08-20T19:42:39.751Z,3.47
2018-08-20T19:45:11.325Z,2.80
2018-08-20T19:47:39.940Z,3.30
2018-08-20T19:50:10.121Z,3.20
2018-08-20T19:52:39.036Z,2.97
2018-08-20T19:55:10.785Z,3.50
2018-08-20T19:57:39.998Z,2.93
2018-08-20T20:00:13.500Z,3.30
2018-08-20T20:02:44.251Z,3.60
2018-08-20T20:05:14.136Z,2.63
2018-08-20T20:08:07.695Z,3.10
2018-08-20T20:10:40.609Z,3.60
2018-08-20T20:13:10.849Z,3.30
2018-08-20T20:15:43.862Z,3.27
2018-08-20T20:18:20.257Z,3.13
2018-08-20T20:20:48.479Z,3.00
2018-08-20T20:23:17.773Z,3.30
2018-08-20T20:25:47.288Z,3.50
2018-08-20T20:28:16.695Z,3.30
2018-08-20T20:30:45.953Z,3.30
2018-08-20T20:33:15.029Z,3.00
2018-08-20T20:35:44.992Z,3.17
2018-08-20T20:38:14.515Z,3.07
2018-08-20T20:40:43.604Z,3.40
2018-08-20T20:43:13.486Z,3.10
2018-08-20T20:45:43.949Z,2.97
2018-08-20T20:48:13.674Z,2.63
2018-08-20T20:50:43.345Z,2.87
2018-08-20T20:53:13.971Z,3.13
2018-08-20T20:55:43.181Z,3.50
2018-08-20T20:58:20.113Z,3.50
2018-08-20T21:00:49.036Z,3.33
2018-08-20T21:03:17.593Z,3.27
2018-08-20T21:05:46.394Z,3.47
2018-08-20T21:08:15.456Z,3.30
2018-08-20T21:10:50.616Z,3.07
2018-08-20T21:13:20.505Z,3.53
2018-08-20T21:15:55.544Z,3.40
2018-08-20T21:18:24.030Z,3.27
2018-08-20T21:20:53.469Z,3.07
2018-08-20T21:23:21.932Z,3.73
2018-08-20T21:25:50.457Z,3.33
2018-08-20T21:28:18.788Z,3.27
2018-08-20T21:30:47.599Z,3.77
2018-08-20T21:33:16.296Z,3.73
2018-08-20T21:35:47.977Z,3.27
2018-08-20T21:38:16.818Z,3.50
2018-08-20T21:40:46.060Z,3.67
2018-08-20T21:43:14.997Z,3.50
2018-08-20T21:45:44.254Z,3.07
2018-08-20T21:48:13.680Z,3.43
2018-08-20T21:50:43.384Z,3.63
2018-08-20T21:53:13.484Z,3.80
2018-08-20T21:55:42.835Z,3.30
2018-08-20T21:58:12.530Z,4.33
2018-08-20T22:00:42.549Z,3.00
2018-08-20T22:03:12.552Z,3.50
2018-08-20T22:05:42.490Z,3.83
2018-08-20T22:08:12.492Z,4.00
2018-08-20T22:10:42.580Z,4.07
2018-08-20T22:13:12.623Z,3.87
2018-08-20T22:15:42.700Z,3.57
2018-08-20T22:18:12.469Z,3.93
2018-08-20T22:20:42.021Z,3.50
2018-08-20T22:23:25.192Z,4.33
2018-08-20T22:25:42.327Z,3.40
2018-08-20T22:28:12.425Z,3.80
2018-08-20T22:30:45.975Z,3.13
2018-08-20T22:33:15.097Z,3.63
2018-08-20T22:35:44.383Z,4.10
2018-08-20T22:38:13.727Z,3.97
2018-08-20T22:40:43.507Z,4.40
2018-08-20T22:43:13.089Z,3.73
2018-08-20T22:45:42.593Z,4.10
2018-08-20T22:48:12.243Z,3.80
2018-08-20T22:50:41.728Z,3.57
2018-08-20T22:53:11.413Z,5.00
2018-08-20T22:55:50.175Z,4.23
2018-08-20T22:58:18.645Z,3.93
2018-08-20T23:00:47.200Z,3.73
2018-08-20T23:03:16.055Z,3.80
2018-08-20T23:05:44.984Z,4.10
2018-08-20T23:08:17.724Z,3.87
2018-08-20T23:10:46.440Z,3.57
2018-08-20T23:13:15.464Z,3.77
2018-08-20T23:15:44.336Z,4.10
2018-08-20T23:18:13.806Z,3.70
2018-08-20T23:20:43.119Z,3.60
2018-08-20T23:23:12.853Z,3.53
2018-08-20T23:25:42.496Z,4.10
2018-08-20T23:28:12.278Z,3.90
2018-08-20T23:30:42.906Z,3.93
2018-08-20T23:33:12.720Z,3.67
2018-08-20T23:35:42.496Z,3.43
2018-08-20T23:38:12.240Z,3.97
2018-08-20T23:40:42.076Z,3.73
2018-08-20T23:43:11.612Z,4.00
2018-08-20T23:45:41.323Z,4.10
2018-08-20T23:48:10.473Z,4.43
2018-08-20T23:50:40.191Z,4.23
2018-08-20T23:53:10.756Z,4.00
2018-08-20T23:55:40.534Z,4.10
2018-08-20T23:58:11.252Z,4.00
